Time;durP1;ratioP1;P1;durP2;ratioP2;P2;SDS_P1;SDS_P2;PMS_P1;PMS_P2;Temp;Humidity;BMP_temperature;BMP_pressure;BME280_temperature;BME280_humidity;BME280_pressure;Samples;Min_cycle;Max_cycle;Signal;HPM_P1;HPM_P2
2022/01/07 00:01:01;;;;;;;6.73;4.43;;;3.00;99.90;;;;;;4949810;28;20237;-84
2022/01/07 00:03:27;;;;;;;5.57;4.55;;;3.30;99.90;;;;;;4984315;28;20985;-84
2022/01/07 00:05:53;;;;;;;10.13;3.97;;;;;;;;;;4975120;28;20284;-83
2022/01/07 00:08:19;;;;;;;4.45;3.75;;;;;;;;;;4983742;28;20571;-83
2022/01/07 00:10:45;;;;;;;6.50;5.38;;;3.30;99.90;;;;;;4968524;28;20185;-84
2022/01/07 00:13:11;;;;;;;10.03;3.93;;;;;;;;;;4983915;28;20239;-84
2022/01/07 00:15:37;;;;;;;9.85;4.15;;;3.40;99.90;;;;;;4953021;28;20858;-83
2022/01/07 00:18:03;;;;;;;2.60;2.40;;;3.10;99.90;;;;;;4984097;28;20232;-84
2022/01/07 00:20:29;;;;;;;14.40;5.27;;;3.70;99.90;;;;;;4967608;28;20194;-83
2022/01/07 00:22:55;;;;;;;9.60;5.18;;;3.30;99.90;;;;;;4965725;28;20239;-83
2022/01/07 00:25:24;;;;;;;5.57;5.05;;;3.80;99.90;;;;;;4960985;28;20269;-83
2022/01/07 00:27:51;;;;;;;4.35;4.03;;;3.40;99.90;;;;;;4967962;28;20182;-84
2022/01/07 00:30:21;;;;;;;5.45;4.95;;;3.70;99.90;;;;;;4953781;28;20217;-84
2022/01/07 00:32:48;;;;;;;7.22;4.85;;;3.50;99.90;;;;;;4968704;28;20185;-83
2022/01/07 00:35:15;;;;;;;6.25;5.53;;;3.30;99.90;;;;;;4960413;28;20297;-83
2022/01/07 00:37:41;;;;;;;5.28;4.55;;;3.30;99.90;;;;;;4984941;28;20466;-84
2022/01/07 00:40:12;;;;;;;3.90;3.60;;;3.30;99.90;;;;;;4996938;28;20189;-84
2022/01/07 00:42:38;;;;;;;7.40;5.50;;;3.50;99.90;;;;;;4978626;28;20348;-83
2022/01/07 00:45:10;;;;;;;10.90;4.67;;;3.40;99.90;;;;;;4956809;28;20238;-83
2022/01/07 00:47:36;;;;;;;13.90;5.38;;;3.50;99.90;;;;;;4981155;28;20438;-84
2022/01/07 00:50:04;;;;;;;13.87;3.00;;;3.80;99.90;;;;;;4956757;28;20287;-83
2022/01/07 00:52:29;;;;;;;7.20;4.68;;;3.50;99.90;;;;;;4976984;28;20185;-84
2022/01/07 00:55:01;;;;;;;9.97;5.10;;;3.80;99.90;;;;;;4973356;28;20189;-83
2022/01/07 00:57:27;;;;;;;5.78;4.57;;;3.40;99.90;;;;;;4950173;28;20182;-83
2022/01/07 00:59:52;;;;;;;4.73;4.30;;;3.70;99.90;;;;;;4966006;28;20193;-84
2022/01/07 01:02:18;;;;;;;8.27;3.37;;;3.30;99.90;;;;;;4968467;28;20205;-84
2022/01/07 01:04:44;;;;;;;4.83;4.47;;;3.40;99.90;;;;;;4951222;28;20224;-84
2022/01/07 01:07:12;;;;;;;5.35;4.55;;;3.50;99.90;;;;;;4967917;28;20185;-83
2022/01/07 01:09:37;;;;;;;3.40;2.53;;;4.60;99.90;;;;;;4991772;28;20193;-84
2022/01/07 01:12:04;;;;;;;6.83;3.93;;;3.00;99.90;;;;;;4964820;28;20276;-84
2022/01/07 01:14:36;;;;;;;4.50;4.20;;;3.50;99.90;;;;;;4983530;28;20435;-84
2022/01/07 01:17:02;;;;;;;5.40;4.90;;;3.90;99.90;;;;;;4967043;28;20244;-83
2022/01/07 01:19:32;;;;;;;3.65;3.35;;;3.60;99.90;;;;;;4992095;28;20204;-84
2022/01/07 01:21:59;;;;;;;4.80;3.88;;;4.90;99.90;;;;;;4968958;28;20190;-84
2022/01/07 01:24:25;;;;;;;5.53;3.35;;;3.20;99.90;;;;;;4959520;28;20221;-83
2022/01/07 01:26:50;;;;;;;7.47;3.40;;;4.40;99.90;;;;;;4965283;28;20210;-84
2022/01/07 01:29:16;;;;;;;6.10;5.07;;;3.60;99.90;;;;;;4979840;28;20529;-82
2022/01/07 01:31:42;;;;;;;5.10;4.50;;;3.90;99.90;;;;;;4971269;28;20622;-83
2022/01/07 01:34:08;;;;;;;6.50;4.40;;;3.50;99.90;;;;;;4987345;28;20428;-83
2022/01/07 01:36:33;;;;;;;5.00;4.00;;;3.50;99.90;;;;;;4971383;28;20189;-83
2022/01/07 01:38:59;;;;;;;9.23;3.90;;;4.30;99.90;;;;;;4986697;28;20225;-83
2022/01/07 01:41:25;;;;;;;6.40;3.05;;;3.50;99.90;;;;;;4968960;28;20274;-83
2022/01/07 01:43:57;;;;;;;8.50;3.95;;;3.60;99.90;;;;;;4959317;28;20221;-83
2022/01/07 01:46:23;;;;;;;5.10;4.80;;;3.40;99.90;;;;;;4969376;28;20533;-82
2022/01/07 01:48:49;;;;;;;7.00;3.30;;;;;;;;;;4969275;28;20220;-83
2022/01/07 01:51:15;;;;;;;5.22;4.25;;;2.30;99.90;;;;;;4971207;28;20440;-83
2022/01/07 01:53:42;;;;;;;4.50;4.10;;;3.50;99.90;;;;;;4964673;28;20200;-83
2022/01/07 01:56:08;;;;;;;4.82;3.55;;;;;;;;;;4952138;28;20173;-82
2022/01/07 01:58:34;;;;;;;6.68;4.88;;;3.50;99.90;;;;;;4987082;28;20201;-84
2022/01/07 02:01:00;;;;;;;3.40;2.07;;;;;;;;;;4981850;28;20236;-83
2022/01/07 02:03:26;;;;;;;3.78;3.40;;;3.20;99.90;;;;;;4966791;28;20491;-83
2022/01/07 02:05:52;;;;;;;4.90;4.27;;;;;;;;;;4967227;28;20185;-83
2022/01/07 02:08:18;;;;;;;4.50;4.05;;;3.30;99.90;;;;;;4985894;28;20189;-82
2022/01/07 02:10:43;;;;;;;9.20;5.17;;;3.20;99.90;;;;;;4987561;28;20551;-82
2022/01/07 02:13:20;;;;;;;5.33;3.63;;;3.30;99.90;;;;;;4970021;28;20396;-83
2022/01/07 02:15:47;;;;;;;4.75;4.30;;;3.40;99.90;;;;;;4991649;28;20670;-84
2022/01/07 02:18:12;;;;;;;5.22;4.70;;;3.50;99.90;;;;;;4986422;28;20196;-83
2022/01/07 02:20:38;;;;;;;6.93;3.90;;;6.30;99.90;;;;;;4971109;28;20185;-83
2022/01/07 02:23:04;;;;;;;4.23;3.20;;;3.40;99.90;;;;;;4965385;28;20579;-83
2022/01/07 02:25:30;;;;;;;6.27;4.33;;;3.20;99.90;;;;;;4982532;28;20876;-84
2022/01/07 02:27:55;;;;;;;6.30;4.07;;;3.20;99.90;;;;;;4967486;28;20358;-83
2022/01/07 02:30:24;;;;;;;3.00;2.90;;;3.30;99.90;;;;;;4967804;28;20236;-84
2022/01/07 02:32:51;;;;;;;5.20;3.78;;;3.10;99.90;;;;;;4986694;28;20506;-83
2022/01/07 02:35:20;;;;;;;15.18;5.35;;;3.30;99.90;;;;;;4959739;28;20222;-83
2022/01/07 02:37:46;;;;;;;3.25;3.05;;;3.20;99.90;;;;;;4987466;28;20255;-83
2022/01/07 02:40:13;;;;;;;11.57;4.70;;;3.20;99.90;;;;;;4956234;28;20210;-84
2022/01/07 02:42:39;;;;;;;7.57;4.80;;;3.30;99.90;;;;;;4965477;28;20600;-84
2022/01/07 02:45:08;;;;;;;8.73;5.10;;;3.20;99.90;;;;;;4974024;28;20280;-83
2022/01/07 02:47:58;;;;;;;7.25;3.95;;;3.10;99.90;;;;;;4987500;28;20264;-84
2022/01/07 02:50:36;;;;;;;5.22;4.68;;;4.30;99.90;;;;;;4962307;28;20674;-84
2022/01/07 02:53:04;;;;;;;7.53;3.70;;;3.40;99.90;;;;;;4980651;28;20166;-84
2022/01/07 02:55:30;;;;;;;6.60;4.40;;;2.80;99.90;;;;;;4975188;28;20537;-85
2022/01/07 02:57:56;;;;;;;4.50;3.33;;;2.70;99.90;;;;;;4967267;28;20413;-84
2022/01/07 03:00:23;;;;;;;6.90;5.67;;;2.80;99.90;;;;;;4956729;28;20515;-85
2022/01/07 03:02:50;;;;;;;6.20;5.10;;;2.40;99.90;;;;;;4969797;28;20534;-85
2022/01/07 03:05:17;;;;;;;5.00;4.60;;;3.60;99.90;;;;;;4968620;28;20185;-84
2022/01/07 03:07:47;;;;;;;5.10;4.72;;;2.70;99.90;;;;;;4969340;28;20598;-83
2022/01/07 03:10:13;;;;;;;6.32;5.63;;;2.60;99.90;;;;;;4951506;28;20190;-83
2022/01/07 03:12:43;;;;;;;7.05;5.03;;;3.00;99.90;;;;;;4967106;28;20184;-84
2022/01/07 03:15:12;;;;;;;9.05;5.53;;;2.60;99.90;;;;;;4958316;28;20193;-84
2022/01/07 03:17:40;;;;;;;6.05;4.65;;;2.60;99.90;;;;;;4981902;28;20185;-86
2022/01/07 03:20:14;;;;;;;6.65;5.57;;;2.50;99.90;;;;;;4958562;28;20253;-84
2022/01/07 03:22:40;;;;;;;9.90;6.20;;;2.80;99.90;;;;;;4964455;28;20772;-84
2022/01/07 03:25:19;;;;;;;6.82;5.05;;;2.50;99.90;;;;;;4967962;28;20189;-85
2022/01/07 03:27:45;;;;;;;6.53;4.40;;;2.40;99.90;;;;;;4952839;28;20189;-84
2022/01/07 03:30:30;;;;;;;5.20;4.40;;;2.40;99.90;;;;;;4967409;28;20566;-85
2022/01/07 03:33:01;;;;;;;11.10;5.85;;;2.30;99.90;;;;;;4939101;28;20201;-85
2022/01/07 03:36:14;;;;;;;9.48;4.70;;;2.30;99.90;;;;;;4962136;28;20272;-85
2022/01/07 03:39:10;;;;;;;4.82;4.22;;;4.90;99.90;;;;;;4968398;28;20508;-85
2022/01/07 03:41:44;;;;;;;8.85;5.20;;;2.30;99.90;;;;;;4956102;28;20186;-84
2022/01/07 03:44:51;;;;;;;14.05;8.30;;;2.30;99.90;;;;;;4976403;28;20207;-85
2022/01/07 03:47:17;;;;;;;8.68;7.80;;;3.70;99.90;;;;;;4966352;28;20201;-86
2022/01/07 03:50:09;;;;;;;4.45;4.18;;;2.10;99.90;;;;;;4956949;28;20185;-86
2022/01/07 03:53:14;;;;;;;;;;;;;;;;;;;;;
2022/01/07 03:59:23;;;;;;;9.15;5.93;;;2.00;99.90;;;;;;4911870;29;20627;-85
2022/01/07 04:01:51;;;;;;;9.68;6.60;;;2.20;99.90;;;;;;4900187;29;20784;-84
2022/01/07 04:04:28;;;;;;;5.38;4.75;;;2.20;99.90;;;;;;4956454;28;20359;-85
2022/01/07 04:06:54;;;;;;;6.03;5.18;;;;;;;;;;4967600;28;20201;-85
2022/01/07 04:09:27;;;;;;;5.10;4.72;;;2.30;99.90;;;;;;4979224;28;20193;-85
2022/01/07 04:11:53;;;;;;;8.68;7.88;;;2.30;99.90;;;;;;4979443;28;20186;-86
2022/01/07 04:14:19;;;;;;;5.50;4.70;;;;;;;;;;4975045;28;20194;-84
2022/01/07 04:16:45;;;;;;;5.25;4.60;;;;;;;;;;4969370;28;20484;-85
2022/01/07 04:19:11;;;;;;;4.55;4.15;;;2.30;99.90;;;;;;4985095;28;20200;-84
2022/01/07 04:21:49;;;;;;;6.50;5.90;;;2.40;99.90;;;;;;4968423;28;20193;-84
2022/01/07 04:24:18;;;;;;;8.70;7.75;;;2.30;99.90;;;;;;4974598;28;20213;-84
2022/01/07 04:26:44;;;;;;;4.85;4.53;;;2.30;99.90;;;;;;4985798;28;20551;-84
2022/01/07 04:29:10;;;;;;;4.68;4.28;;;3.10;99.90;;;;;;4984900;28;20187;-85
2022/01/07 04:31:37;;;;;;;7.10;6.03;;;;;;;;;;4960921;28;20626;-85
2022/01/07 04:34:06;;;;;;;3.67;2.78;;;2.50;99.90;;;;;;4973954;28;20496;-85
2022/01/07 04:36:32;;;;;;;5.70;5.00;;;2.50;99.90;;;;;;4986335;28;20243;-85
2022/01/07 04:38:58;;;;;;;5.47;5.00;;;2.50;99.90;;;;;;4967417;28;20698;-85
2022/01/07 04:41:23;;;;;;;4.90;4.50;;;6.10;99.90;;;;;;4986671;28;20251;-86
2022/01/07 04:43:49;;;;;;;8.00;4.50;;;;;;;;;;4984324;28;20989;-85
2022/01/07 04:46:15;;;;;;;6.22;4.30;;;2.50;99.90;;;;;;4965810;28;20198;-85
2022/01/07 04:48:41;;;;;;;4.50;4.20;;;;;;;;;;4969625;28;20725;-85
2022/01/07 04:51:07;;;;;;;4.00;3.55;;;;;;;;;;4985670;28;20185;-85
2022/01/07 04:53:36;;;;;;;4.00;3.58;;;;;;;;;;4983854;28;20697;-86
2022/01/07 04:56:02;;;;;;;7.10;5.03;;;2.50;99.90;;;;;;4985158;28;20197;-85
2022/01/07 04:58:44;;;;;;;8.70;4.77;;;2.40;99.90;;;;;;4987315;28;20570;-85
2022/01/07 05:01:09;;;;;;;4.88;4.47;;;2.40;99.90;;;;;;4979549;28;20232;-85
2022/01/07 05:03:35;;;;;;;4.10;3.70;;;;;;;;;;4986749;28;20236;-85
2022/01/07 05:06:30;;;;;;;6.77;4.77;;;2.50;99.90;;;;;;4972611;28;20181;-85
2022/01/07 05:08:52;;;;;;;6.70;5.30;;;2.60;99.90;;;;;;4977404;28;20440;-86
2022/01/07 05:11:18;;;;;;;7.82;4.05;;;2.50;99.90;;;;;;4969978;28;20186;-84
2022/01/07 05:13:44;;;;;;;7.40;4.60;;;;;;;;;;4996254;28;20202;-86
2022/01/07 05:16:16;;;;;;;7.70;4.57;;;2.50;99.90;;;;;;4965158;28;20174;-85
2022/01/07 05:18:41;;;;;;;4.30;4.10;;;3.50;99.90;;;;;;4991183;28;20189;-85
2022/01/07 05:21:07;;;;;;;6.00;4.30;;;;;;;;;;5000181;28;20268;-85
2022/01/07 05:23:33;;;;;;;8.05;4.70;;;2.60;99.90;;;;;;4972661;28;20744;-84
2022/01/07 05:25:59;;;;;;;5.70;4.07;;;;;;;;;;4981071;28;20170;-85
2022/01/07 05:28:25;;;;;;;4.68;4.32;;;;;;;;;;4959557;28;20451;-82
2022/01/07 05:30:51;;;;;;;5.17;4.57;;;2.50;99.90;;;;;;4992894;28;20178;-84
2022/01/07 05:33:20;;;;;;;7.67;5.30;;;;;;;;;;4989062;28;20433;-85
2022/01/07 05:35:46;;;;;;;3.53;3.13;;;;;;;;;;4982636;28;20308;-86
2022/01/07 05:38:12;;;;;;;9.85;3.60;;;2.50;99.90;;;;;;4989713;28;20686;-85
2022/01/07 05:40:45;;;;;;;7.97;4.30;;;2.50;99.90;;;;;;4957026;29;20186;-86
2022/01/07 05:43:10;;;;;;;3.90;3.55;;;2.40;99.90;;;;;;4942392;28;20217;-85
2022/01/07 05:45:36;;;;;;;3.77;2.93;;;;;;;;;;4960085;28;20225;-86
2022/01/07 05:48:05;;;;;;;3.33;3.00;;;2.20;99.90;;;;;;4959919;28;20711;-86
2022/01/07 05:50:30;;;;;;;4.10;3.80;;;2.20;99.90;;;;;;4996930;28;20408;-86
2022/01/07 05:52:56;;;;;;;5.80;5.20;;;;;;;;;;4973855;28;20190;-84
2022/01/07 05:55:22;;;;;;;6.40;5.40;;;2.30;99.90;;;;;;4978468;28;20532;-85
2022/01/07 05:57:51;;;;;;;3.07;2.87;;;;;;;;;;4957537;28;20445;-86
2022/01/07 06:00:18;;;;;;;10.93;4.50;;;;;;;;;;4979902;28;20663;-85
2022/01/07 06:02:44;;;;;;;4.43;4.13;;;2.10;99.90;;;;;;4958885;28;20275;-85
2022/01/07 06:05:10;;;;;;;3.17;3.07;;;;;;;;;;4957561;28;20872;-86
2022/01/07 06:07:36;;;;;;;5.35;4.85;;;2.00;99.90;;;;;;4953221;29;20450;-85
2022/01/07 06:10:02;;;;;;;5.37;5.03;;;;;;;;;;4945520;28;20688;-85
2022/01/07 06:12:28;;;;;;;4.55;4.35;;;;;;;;;;4972433;28;20687;-84
2022/01/07 06:14:53;;;;;;;11.80;5.75;;;2.00;99.90;;;;;;4957204;28;20212;-84
2022/01/07 06:17:19;;;;;;;4.97;4.47;;;;;;;;;;4971394;28;20640;-84
2022/01/07 06:19:45;;;;;;;10.75;5.20;;;;;;;;;;4970937;28;20276;-85
2022/01/07 06:22:11;;;;;;;7.40;6.70;;;;;;;;;;4945954;29;20214;-85
2022/01/07 06:24:38;;;;;;;6.32;5.82;;;;;;;;;;4971625;28;20468;-87
2022/01/07 06:27:04;;;;;;;2.88;2.85;;;1.90;99.90;;;;;;4955119;28;20260;-85
2022/01/07 06:29:29;;;;;;;6.65;5.45;;;2.00;99.90;;;;;;4954255;28;20200;-85
2022/01/07 06:31:55;;;;;;;5.63;5.13;;;;;;;;;;4956239;28;20255;-84
2022/01/07 06:34:21;;;;;;;4.00;3.85;;;;;;;;;;4975299;28;20241;-86
2022/01/07 06:36:48;;;;;;;5.15;4.18;;;;;;;;;;4954017;28;20277;-85
2022/01/07 06:39:15;;;;;;;7.25;5.72;;;2.10;99.90;;;;;;4978523;28;20184;-84
2022/01/07 06:41:41;;;;;;;6.55;4.88;;;1.90;99.90;;;;;;4972754;28;20190;-85
2022/01/07 06:44:07;;;;;;;5.47;5.03;;;;;;;;;;4978445;28;20263;-85
2022/01/07 06:46:33;;;;;;;5.90;5.40;;;2.10;99.90;;;;;;4991813;28;20424;-84
2022/01/07 06:48:59;;;;;;;5.17;4.67;;;;;;;;;;4984626;28;20194;-82
2022/01/07 06:51:25;;;;;;;9.50;5.32;;;;;;;;;;4956461;28;20237;-83
2022/01/07 06:53:51;;;;;;;14.75;7.25;;;2.10;99.90;;;;;;4992770;28;20212;-84
2022/01/07 06:56:17;;;;;;;8.83;6.53;;;;;;;;;;4963976;28;20198;-83
2022/01/07 06:58:43;;;;;;;10.43;7.13;;;;;;;;;;4974415;28;20185;-85
2022/01/07 07:01:08;;;;;;;7.03;6.32;;;2.20;99.90;;;;;;4965731;28;20415;-83
2022/01/07 07:03:39;;;;;;;6.77;6.33;;;2.10;99.90;;;;;;4970509;28;20399;-83
2022/01/07 07:06:05;;;;;;;4.00;3.78;;;2.30;99.90;;;;;;4963142;28;20194;-84
2022/01/07 07:08:30;;;;;;;6.37;5.93;;;2.20;99.90;;;;;;4988970;28;20205;-84
2022/01/07 07:10:56;;;;;;;4.77;4.53;;;2.40;99.90;;;;;;4975096;28;20252;-85
2022/01/07 07:13:22;;;;;;;4.07;3.87;;;2.20;99.90;;;;;;4988711;28;20193;-85
2022/01/07 07:15:47;;;;;;;4.67;4.27;;;3.60;99.90;;;;;;4988497;28;20192;-84
2022/01/07 07:18:14;;;;;;;10.27;6.70;;;2.80;99.90;;;;;;4972156;28;20301;-84
2022/01/07 07:20:40;;;;;;;8.50;6.93;;;2.50;99.90;;;;;;4970001;28;20380;-84
2022/01/07 07:23:06;;;;;;;6.88;5.82;;;;;;;;;;4970793;28;20209;-82
2022/01/07 07:25:32;;;;;;;10.83;6.27;;;;;;;;;;4988391;28;20684;-84
2022/01/07 07:27:59;;;;;;;13.65;6.82;;;2.50;99.90;;;;;;4988766;28;20453;-84
2022/01/07 07:30:32;;;;;;;6.30;5.00;;;;;;;;;;4970123;28;20222;-83
2022/01/07 07:33:30;;;;;;;4.75;4.50;;;2.40;99.90;;;;;;4983296;28;20674;-85
2022/01/07 07:38:42;;;;;;;8.98;5.82;;;;;;;;;;4980715;28;20318;-83
2022/01/07 07:41:10;;;;;;;8.20;5.15;;;2.70;99.90;;;;;;4984648;28;20670;-83
2022/01/07 07:43:37;;;;;;;9.05;4.65;;;2.60;99.90;;;;;;4953046;28;20213;-85
2022/01/07 07:46:03;;;;;;;3.70;3.50;;;;;;;;;;4987510;28;20185;-84
2022/01/07 07:48:31;;;;;;;7.63;4.90;;;2.70;99.90;;;;;;4979447;28;20690;-83
2022/01/07 07:50:57;;;;;;;9.90;4.65;;;2.80;99.90;;;;;;4981463;28;20686;-83
2022/01/07 07:53:22;;;;;;;5.30;4.80;;;2.70;99.90;;;;;;4989626;28;20202;-83
2022/01/07 07:55:53;;;;;;;5.50;5.00;;;;;;;;;;4978119;28;20188;-83
2022/01/07 07:58:19;;;;;;;5.90;5.40;;;2.90;99.90;;;;;;4956510;28;20662;-82
2022/01/07 08:00:46;;;;;;;5.07;4.40;;;3.00;99.90;;;;;;4984014;28;20642;-82
2022/01/07 08:03:12;;;;;;;4.20;3.90;;;;;;;;;;4953786;28;20260;-85
2022/01/07 08:05:38;;;;;;;7.38;5.60;;;;;;;;;;4979440;28;20279;-83
2022/01/07 08:08:04;;;;;;;4.85;4.50;;;3.00;99.90;;;;;;4977976;28;20222;-84
2022/01/07 08:10:33;;;;;;;5.47;5.03;;;3.10;99.90;;;;;;4963305;28;20244;-81
2022/01/07 08:18:20;;;;;;;6.65;4.75;;;3.50;99.90;;;;;;4978582;28;20185;-83
2022/01/07 08:20:46;;;;;;;4.67;4.43;;;;;;;;;;4621279;28;10000517;-82
2022/01/07 08:23:12;;;;;;;5.75;5.10;;;3.20;99.90;;;;;;4957581;28;20255;-83
2022/01/07 08:25:38;;;;;;;4.78;4.05;;;3.10;99.90;;;;;;4963718;28;20275;-83
2022/01/07 08:28:05;;;;;;;5.50;5.10;;;3.20;99.90;;;;;;4957915;28;20547;-84
2022/01/07 08:30:58;;;;;;;4.85;4.40;;;2.80;99.90;;;;;;4981125;28;20184;-83
2022/01/07 08:36:07;;;;;;;5.03;4.63;;;3.40;99.90;;;;;;4977612;28;20204;-83
2022/01/07 08:38:33;;;;;;;5.20;4.70;;;3.00;99.90;;;;;;4963699;28;20229;-84
2022/01/07 08:40:59;;;;;;;5.47;5.00;;;3.40;99.90;;;;;;4976521;28;20190;-83
2022/01/07 08:43:25;;;;;;;5.20;4.35;;;;;;;;;;4968732;28;20228;-84
2022/01/07 08:45:51;;;;;;;4.65;4.30;;;3.40;99.90;;;;;;4967789;28;20713;-84
2022/01/07 08:48:36;;;;;;;10.63;5.43;;;3.40;99.90;;;;;;4991367;28;20196;-86
2022/01/07 08:53:38;;;;;;;7.78;5.20;;;;;;;;;;4633206;26;20375;-84
2022/01/07 08:56:05;;;;;;;6.07;5.35;;;3.30;99.90;;;;;;5041533;28;20192;-83
2022/01/07 08:58:35;;;;;;;4.20;3.72;;;3.50;99.90;;;;;;5024037;28;20601;-83
2022/01/07 09:01:00;;;;;;;3.40;3.35;;;3.80;99.90;;;;;;5011090;28;20283;-83
2022/01/07 09:03:26;;;;;;;4.83;3.30;;;3.50;99.90;;;;;;5028756;28;20255;-84
2022/01/07 09:05:52;;;;;;;5.35;4.90;;;3.70;99.90;;;;;;5024118;28;20228;-84
2022/01/07 09:08:18;;;;;;;4.30;4.00;;;;;;;;;;5031943;28;20198;-83
2022/01/07 09:10:44;;;;;;;3.70;2.67;;;;;;;;;;5023481;28;20235;-84
2022/01/07 09:13:10;;;;;;;6.55;4.70;;;3.70;99.90;;;;;;5016540;28;20449;-83
2022/01/07 09:15:37;;;;;;;4.57;4.20;;;3.70;99.90;;;;;;5001133;28;20199;-82
2022/01/07 09:18:14;;;;;;;3.65;3.53;;;3.90;99.90;;;;;;5011018;28;20191;-84
2022/01/07 09:20:42;;;;;;;3.30;3.10;;;7.50;99.90;;;;;;4998466;28;20177;-82
2022/01/07 09:23:09;;;;;;;3.50;3.28;;;3.70;99.90;;;;;;5006872;28;20844;-83
2022/01/07 09:25:34;;;;;;;4.85;3.78;;;3.90;99.90;;;;;;5011028;28;20348;-84
2022/01/07 09:28:01;;;;;;;4.47;4.17;;;;;;;;;;5028996;28;20267;-83
2022/01/07 09:30:27;;;;;;;4.88;4.57;;;4.80;99.90;;;;;;5014267;28;20187;-84
2022/01/07 09:32:53;;;;;;;4.50;4.10;;;;;;;;;;5028818;28;20203;-83
2022/01/07 09:35:19;;;;;;;4.72;4.43;;;;;;;;;;4997176;28;20762;-83
2022/01/07 09:37:45;;;;;;;4.32;4.03;;;3.90;99.90;;;;;;5021257;28;20619;-84
2022/01/07 09:40:12;;;;;;;6.22;4.63;;;3.80;99.90;;;;;;5016315;28;20200;-82
2022/01/07 09:42:39;;;;;;;3.67;3.40;;;3.80;99.90;;;;;;4974141;28;20682;-84
2022/01/07 09:45:05;;;;;;;3.75;3.35;;;3.70;99.90;;;;;;4998732;28;20177;-84
2022/01/07 09:47:34;;;;;;;4.60;4.32;;;3.90;99.90;;;;;;5009128;28;20658;-84
2022/01/07 09:49:59;;;;;;;4.20;3.92;;;3.70;99.90;;;;;;4974361;28;20185;-82
2022/01/07 09:52:25;;;;;;;6.00;4.47;;;;;;;;;;5008204;28;20699;-83
2022/01/07 09:54:54;;;;;;;4.20;3.47;;;4.00;99.90;;;;;;4998172;28;20189;-84
2022/01/07 09:57:19;;;;;;;4.45;4.25;;;4.00;99.90;;;;;;4987555;28;20189;-84
2022/01/07 09:59:53;;;;;;;2.10;1.83;;;4.00;99.90;;;;;;4630268;28;10000019;-82
2022/01/07 10:02:18;;;;;;;5.05;4.75;;;6.40;99.90;;;;;;5006681;28;20168;-83
2022/01/07 10:04:44;;;;;;;4.33;4.13;;;4.10;99.90;;;;;;4971266;28;20606;-82
2022/01/07 10:07:20;;;;;;;3.70;3.60;;;3.40;99.90;;;;;;5006864;28;20216;-84
2022/01/07 10:10:07;;;;;;;3.40;3.20;;;4.10;99.90;;;;;;5003490;28;20193;-84
2022/01/07 10:13:06;;;;;;;2.90;2.80;;;4.10;99.90;;;;;;4984833;28;20196;-82
2022/01/07 10:15:41;;;;;;;2.88;2.78;;;4.20;99.90;;;;;;4985426;28;20603;-84
2022/01/07 10:18:09;;;;;;;3.53;3.40;;;4.30;99.90;;;;;;4994619;28;20294;-84
2022/01/07 10:20:41;;;;;;;4.32;4.07;;;4.30;99.90;;;;;;4987088;28;20240;-84
2022/01/07 10:23:09;;;;;;;3.80;3.60;;;4.40;99.90;;;;;;4989974;28;20239;-84
2022/01/07 10:25:38;;;;;;;3.60;3.50;;;4.20;99.90;;;;;;4986833;28;20323;-84
2022/01/07 10:28:16;;;;;;;4.35;3.55;;;5.20;99.90;;;;;;4969571;28;20205;-86
2022/01/07 10:30:46;;;;;;;2.75;2.50;;;5.00;99.90;;;;;;5005112;28;20172;-82
2022/01/07 10:33:35;;;;;;;2.95;2.85;;;5.00;99.90;;;;;;4979861;28;20193;-83
2022/01/07 10:36:06;;;;;;;2.20;2.20;;;4.50;99.90;;;;;;4980880;28;20441;-84
2022/01/07 10:38:34;;;;;;;3.00;2.80;;;4.90;99.90;;;;;;4972883;28;20300;-81
2022/01/07 10:41:00;;;;;;;3.15;2.95;;;5.30;99.90;;;;;;4988119;28;20372;-84
2022/01/07 10:43:33;;;;;;;1.93;1.93;;;5.50;99.90;;;;;;4985013;28;20319;-83
2022/01/07 10:46:11;;;;;;;5.90;2.55;;;4.80;99.90;;;;;;5009301;28;20431;-85
2022/01/07 10:48:39;;;;;;;2.20;2.10;;;4.70;99.90;;;;;;5008058;28;20211;-85
2022/01/07 10:51:25;;;;;;;2.22;2.13;;;4.80;99.90;;;;;;4989647;28;20197;-87
2022/01/07 10:53:56;;;;;;;1.80;1.80;;;4.70;99.90;;;;;;4974287;28;20228;-84
2022/01/07 10:56:23;;;;;;;1.73;1.73;;;4.80;99.90;;;;;;4985598;28;20184;-85
2022/01/07 10:59:01;;;;;;;2.35;2.25;;;4.90;99.90;;;;;;4991631;28;20243;-86
2022/01/07 11:01:29;;;;;;;2.25;2.15;;;5.10;99.90;;;;;;4974101;28;20710;-85
2022/01/07 11:04:01;;;;;;;2.25;2.25;;;4.90;99.90;;;;;;5017020;28;20251;-85
2022/01/07 11:06:30;;;;;;;2.58;2.38;;;4.80;99.90;;;;;;4974837;28;20694;-85
2022/01/07 11:08:57;;;;;;;3.13;2.92;;;4.90;99.90;;;;;;5005638;28;20231;-82
2022/01/07 11:11:25;;;;;;;2.10;2.10;;;4.80;99.90;;;;;;5007128;28;20311;-85
2022/01/07 11:13:51;;;;;;;3.10;3.00;;;4.90;99.90;;;;;;5009655;28;20193;-85
2022/01/07 11:16:38;;;;;;;2.40;2.30;;;5.10;99.90;;;;;;5012925;28;20719;-85
2022/01/07 11:19:06;;;;;;;2.10;2.10;;;5.10;99.90;;;;;;4652551;28;10000555;-84
2022/01/07 11:21:33;;;;;;;2.03;1.92;;;;;;;;;;5006614;28;20176;-82
2022/01/07 11:24:34;;;;;;;2.50;2.38;;;5.90;99.90;;;;;;5002948;28;20852;-85
2022/01/07 11:27:21;;;;;;;2.40;2.30;;;5.90;99.90;;;;;;4986775;28;20187;-85
2022/01/07 11:29:52;;;;;;;2.28;1.65;;;6.20;99.90;;;;;;4998194;28;20208;-82
2022/01/07 11:32:32;;;;;;;2.97;2.38;;;5.20;99.90;;;;;;5013442;28;20374;-84
2022/01/07 11:35:21;;;;;;;2.60;2.40;;;5.30;99.90;;;;;;5029841;28;20265;-84
2022/01/07 11:37:48;;;;;;;2.00;2.00;;;5.30;99.90;;;;;;5010286;28;20180;-85
2022/01/07 11:40:31;;;;;;;2.35;2.35;;;5.20;99.90;;;;;;4992097;28;20235;-87
2022/01/07 11:43:08;;;;;;;1.95;1.95;;;5.40;99.90;;;;;;4993292;28;20702;-85
2022/01/07 11:45:38;;;;;;;2.15;2.13;;;5.10;99.90;;;;;;5030737;28;20184;-85
2022/01/07 11:48:15;;;;;;;2.28;2.28;;;5.20;99.90;;;;;;5009920;28;20255;-85
2022/01/07 11:51:01;;;;;;;1.33;1.33;;;5.40;99.90;;;;;;5013269;28;20542;-83
2022/01/07 11:53:49;;;;;;;2.47;2.47;;;5.40;99.90;;;;;;5018278;28;20219;-83
2022/01/07 11:56:19;;;;;;;2.92;2.72;;;4.90;99.90;;;;;;5032647;28;20178;-85
2022/01/07 11:58:51;;;;;;;1.80;1.80;;;5.10;99.90;;;;;;5004119;28;20188;-85
2022/01/07 12:02:19;;;;;;;;;;;;;;;;;;;;;
2022/01/07 12:04:54;;;;;;;2.15;1.95;;;5.40;99.90;;;;;;5015638;28;20701;-85
2022/01/07 12:08:20;;;;;;;1.92;1.85;;;5.30;99.90;;;;;;5002367;28;20172;-84
2022/01/07 12:11:11;;;;;;;2.53;2.42;;;5.70;99.90;;;;;;4916248;29;20195;-86
2022/01/07 12:13:39;;;;;;;3.20;3.10;;;5.30;99.90;;;;;;4927484;28;20185;-84
2022/01/07 12:16:11;;;;;;;4.45;2.47;;;5.20;99.90;;;;;;5013469;28;20212;-84
2022/01/07 12:18:37;;;;;;;2.70;2.60;;;;;;;;;;5035088;28;20582;-82
2022/01/07 12:21:06;;;;;;;2.63;2.53;;;5.40;99.90;;;;;;5029125;28;20455;-84
2022/01/07 12:23:31;;;;;;;2.00;2.00;;;5.60;99.90;;;;;;5020696;28;20256;-83
2022/01/07 12:26:03;;;;;;;2.30;2.30;;;;;;;;;;5025581;28;20271;-82
2022/01/07 12:28:42;;;;;;;2.70;2.60;;;5.40;99.90;;;;;;5017730;28;20317;-84
2022/01/07 12:31:14;;;;;;;3.72;2.33;;;6.50;99.90;;;;;;4999118;28;20200;-83
2022/01/07 12:33:54;;;;;;;3.28;2.17;;;5.30;99.90;;;;;;4997902;28;20196;-83
2022/01/07 12:36:32;;;;;;;5.75;2.70;;;5.40;99.90;;;;;;5023315;28;20192;-81
2022/01/07 12:39:04;;;;;;;2.80;2.70;;;7.70;99.90;;;;;;4983425;28;20204;-84
2022/01/07 12:41:30;;;;;;;3.35;2.90;;;5.50;99.90;;;;;;4990435;28;20280;-84
2022/01/07 12:44:08;;;;;;;3.25;3.05;;;4.70;99.90;;;;;;5006234;28;20216;-84
2022/01/07 12:46:35;;;;;;;3.17;2.92;;;5.60;99.90;;;;;;4989286;28;20336;-84
2022/01/07 12:49:00;;;;;;;2.70;2.60;;;5.80;99.90;;;;;;4996135;28;20200;-83
2022/01/07 12:51:29;;;;;;;5.23;2.80;;;5.70;99.90;;;;;;4971271;28;20208;-84
2022/01/07 12:54:05;;;;;;;3.25;2.40;;;5.80;99.90;;;;;;4979142;28;20221;-85
2022/01/07 12:56:33;;;;;;;2.85;2.42;;;8.70;99.90;;;;;;4982636;28;20192;-85
2022/01/07 12:59:19;;;;;;;3.28;2.97;;;6.00;99.90;;;;;;5005129;28;20177;-86
2022/01/07 13:01:47;;;;;;;2.95;2.83;;;5.70;99.90;;;;;;4986029;28;20232;-85
2022/01/07 13:04:22;;;;;;;4.35;2.15;;;6.40;99.90;;;;;;4990707;28;20212;-86
2022/01/07 13:06:54;;;;;;;5.65;3.35;;;7.20;99.90;;;;;;5013260;28;20211;-84
2022/01/07 13:09:27;;;;;;;6.07;3.17;;;9.00;99.90;;;;;;4996271;28;20288;-85
2022/01/07 13:12:09;;;;;;;3.40;3.30;;;5.70;99.90;;;;;;5006522;28;20283;-85
2022/01/07 13:14:45;;;;;;;5.43;3.83;;;5.70;99.90;;;;;;4985029;28;20181;-85
2022/01/07 13:17:12;;;;;;;3.63;3.33;;;;;;;;;;5016156;28;20199;-85
2022/01/07 13:19:45;;;;;;;7.13;3.10;;;5.60;99.90;;;;;;4996140;28;20193;-85
2022/01/07 13:22:13;;;;;;;3.22;2.97;;;5.50;99.90;;;;;;4992585;28;20211;-85
2022/01/07 13:24:39;;;;;;;4.93;3.08;;;;;;;;;;4990973;28;20373;-85
2022/01/07 13:27:08;;;;;;;5.10;3.65;;;5.60;99.90;;;;;;5013546;28;20733;-86
2022/01/07 13:29:36;;;;;;;4.30;3.88;;;;;;;;;;4994946;28;20203;-86
2022/01/07 13:32:05;;;;;;;3.40;3.20;;;5.70;99.90;;;;;;4300731;28;10022394;-86
2022/01/07 13:34:38;;;;;;;9.18;3.28;;;5.70;99.90;;;;;;5004658;28;20282;-85
2022/01/07 13:37:19;;;;;;;3.15;3.05;;;6.40;99.90;;;;;;5004148;28;20607;-85
2022/01/07 13:39:45;;;;;;;4.22;3.92;;;;;;;;;;4985287;28;20658;-86
2022/01/07 13:42:17;;;;;;;3.97;3.10;;;5.60;99.90;;;;;;5007199;28;20200;-85
2022/01/07 13:44:52;;;;;;;2.90;2.70;;;5.50;99.90;;;;;;4991056;28;20471;-85
2022/01/07 13:47:20;;;;;;;2.47;2.38;;;5.50;99.90;;;;;;4991039;28;20224;-84
2022/01/07 13:49:46;;;;;;;3.25;3.10;;;5.80;99.90;;;;;;4990370;28;20199;-85